sensor_id;sensor_type;location;lat;lon;timestamp;P1;durP1;ratioP1;P2;durP2;ratioP2
57233;SDS011;43090;52.604;13.318;2024-03-29T00:04:58;3.20;;;0.40;;
57233;SDS011;43090;52.604;13.318;2024-03-29T00:07:23;1.77;;;0.40;;
57233;SDS011;43090;52.604;13.318;2024-03-29T00:09:49;3.63;;;0.60;;
57233;SDS011;43090;52.604;13.318;2024-03-29T00:12:14;3.33;;;0.50;;
57233;SDS011;43090;52.604;13.318;2024-03-29T00:14:40;2.43;;;0.67;;
57233;SDS011;43090;52.604;13.318;2024-03-29T00:17:05;4.13;;;0.60;;
57233;SDS011;43090;52.604;13.318;2024-03-29T00:19:31;2.57;;;0.70;;
57233;SDS011;43090;52.604;13.318;2024-03-29T00:21:57;6.15;;;0.80;;
57233;SDS011;43090;52.604;13.318;2024-03-29T00:24:22;2.03;;;0.70;;
57233;SDS011;43090;52.604;13.318;2024-03-29T00:26:48;3.03;;;0.73;;
57233;SDS011;43090;52.604;13.318;2024-03-29T00:29:13;0.70;;;0.37;;
57233;SDS011;43090;52.604;13.318;2024-03-29T00:31:39;2.23;;;0.60;;
57233;SDS011;43090;52.604;13.318;2024-03-29T00:34:05;2.30;;;0.65;;
57233;SDS011;43090;52.604;13.318;2024-03-29T00:36:31;3.07;;;0.57;;
57233;SDS011;43090;52.604;13.318;2024-03-29T00:38:56;1.50;;;0.70;;
57233;SDS011;43090;52.604;13.318;2024-03-29T00:41:22;3.43;;;0.60;;
57233;SDS011;43090;52.604;13.318;2024-03-29T00:43:47;1.03;;;0.50;;
57233;SDS011;43090;52.604;13.318;2024-03-29T00:46:14;6.53;;;0.65;;
57233;SDS011;43090;52.604;13.318;2024-03-29T00:48:39;4.37;;;0.63;;
57233;SDS011;43090;52.604;13.318;2024-03-29T00:51:05;3.57;;;0.77;;
57233;SDS011;43090;52.604;13.318;2024-03-29T00:53:30;2.33;;;0.63;;
57233;SDS011;43090;52.604;13.318;2024-03-29T00:55:56;4.13;;;0.50;;
57233;SDS011;43090;52.604;13.318;2024-03-29T00:58:21;1.03;;;0.47;;
57233;SDS011;43090;52.604;13.318;2024-03-29T01:00:47;5.53;;;0.73;;
57233;SDS011;43090;52.604;13.318;2024-03-29T01:03:12;6.73;;;1.03;;
57233;SDS011;43090;52.604;13.318;2024-03-29T01:05:38;2.70;;;0.60;;
57233;SDS011;43090;52.604;13.318;2024-03-29T01:08:04;3.60;;;0.60;;
57233;SDS011;43090;52.604;13.318;2024-03-29T01:10:29;0.73;;;0.40;;
57233;SDS011;43090;52.604;13.318;2024-03-29T01:13:07;3.60;;;0.60;;
57233;SDS011;43090;52.604;13.318;2024-03-29T01:15:33;1.63;;;0.50;;
57233;SDS011;43090;52.604;13.318;2024-03-29T01:17:58;2.97;;;0.57;;
57233;SDS011;43090;52.604;13.318;2024-03-29T01:20:24;1.70;;;0.60;;
57233;SDS011;43090;52.604;13.318;2024-03-29T01:22:49;5.63;;;1.07;;
57233;SDS011;43090;52.604;13.318;2024-03-29T01:25:15;2.10;;;0.63;;
57233;SDS011;43090;52.604;13.318;2024-03-29T01:27:42;4.68;;;0.70;;
57233;SDS011;43090;52.604;13.318;2024-03-29T01:30:08;1.73;;;0.53;;
57233;SDS011;43090;52.604;13.318;2024-03-29T01:32:34;6.55;;;1.25;;
57233;SDS011;43090;52.604;13.318;2024-03-29T01:35:00;2.63;;;0.73;;
57233;SDS011;43090;52.604;13.318;2024-03-29T01:37:25;7.13;;;1.00;;
57233;SDS011;43090;52.604;13.318;2024-03-29T01:39:51;3.53;;;0.70;;
57233;SDS011;43090;52.604;13.318;2024-03-29T01:42:16;2.30;;;0.90;;
57233;SDS011;43090;52.604;13.318;2024-03-29T01:44:42;1.43;;;0.53;;
57233;SDS011;43090;52.604;13.318;2024-03-29T01:47:08;2.17;;;0.70;;
57233;SDS011;43090;52.604;13.318;2024-03-29T01:49:33;2.07;;;0.60;;
57233;SDS011;43090;52.604;13.318;2024-03-29T01:51:59;2.93;;;0.77;;
57233;SDS011;43090;52.604;13.318;2024-03-29T01:54:25;5.35;;;0.93;;
57233;SDS011;43090;52.604;13.318;2024-03-29T01:56:50;5.77;;;0.70;;
57233;SDS011;43090;52.604;13.318;2024-03-29T01:59:17;5.03;;;0.77;;
57233;SDS011;43090;52.604;13.318;2024-03-29T02:01:45;2.65;;;0.60;;
57233;SDS011;43090;52.604;13.318;2024-03-29T02:06:37;1.40;;;0.38;;
57233;SDS011;43090;52.604;13.318;2024-03-29T02:09:04;3.10;;;0.80;;
57233;SDS011;43090;52.604;13.318;2024-03-29T02:11:30;4.40;;;1.00;;
57233;SDS011;43090;52.604;13.318;2024-03-29T02:13:56;2.37;;;0.73;;
57233;SDS011;43090;52.604;13.318;2024-03-29T02:16:22;2.15;;;0.85;;
57233;SDS011;43090;52.604;13.318;2024-03-29T02:18:47;3.83;;;0.87;;
57233;SDS011;43090;52.604;13.318;2024-03-29T02:21:13;7.30;;;1.10;;
57233;SDS011;43090;52.604;13.318;2024-03-29T02:23:40;5.10;;;0.73;;
57233;SDS011;43090;52.604;13.318;2024-03-29T02:26:10;2.88;;;1.00;;
57233;SDS011;43090;52.604;13.318;2024-03-29T02:28:36;2.67;;;1.20;;
57233;SDS011;43090;52.604;13.318;2024-03-29T02:47:06;2.83;;;1.10;;
57233;SDS011;43090;52.604;13.318;2024-03-29T02:49:32;2.17;;;1.10;;
57233;SDS011;43090;52.604;13.318;2024-03-29T02:51:58;5.20;;;1.10;;
57233;SDS011;43090;52.604;13.318;2024-03-29T02:54:23;2.93;;;1.03;;
57233;SDS011;43090;52.604;13.318;2024-03-29T02:56:49;1.73;;;0.87;;
57233;SDS011;43090;52.604;13.318;2024-03-29T02:59:14;1.83;;;1.03;;
57233;SDS011;43090;52.604;13.318;2024-03-29T03:01:40;5.10;;;1.07;;
57233;SDS011;43090;52.604;13.318;2024-03-29T03:04:05;3.93;;;0.80;;
57233;SDS011;43090;52.604;13.318;2024-03-29T03:06:31;6.37;;;1.10;;
57233;SDS011;43090;52.604;13.318;2024-03-29T03:08:57;5.90;;;0.90;;
57233;SDS011;43090;52.604;13.318;2024-03-29T03:11:41;2.22;;;1.13;;
57233;SDS011;43090;52.604;13.318;2024-03-29T03:14:06;2.77;;;1.00;;
57233;SDS011;43090;52.604;13.318;2024-03-29T03:16:32;5.97;;;2.07;;
57233;SDS011;43090;52.604;13.318;2024-03-29T03:18:57;3.73;;;1.07;;
57233;SDS011;43090;52.604;13.318;2024-03-29T03:21:23;1.63;;;1.17;;
57233;SDS011;43090;52.604;13.318;2024-03-29T03:23:49;3.40;;;1.20;;
57233;SDS011;43090;52.604;13.318;2024-03-29T03:26:14;3.87;;;1.30;;
57233;SDS011;43090;52.604;13.318;2024-03-29T03:28:40;1.53;;;0.90;;
57233;SDS011;43090;52.604;13.318;2024-03-29T03:31:05;4.67;;;1.07;;
57233;SDS011;43090;52.604;13.318;2024-03-29T03:33:32;4.97;;;1.20;;
57233;SDS011;43090;52.604;13.318;2024-03-29T03:35:58;2.67;;;1.30;;
57233;SDS011;43090;52.604;13.318;2024-03-29T03:38:23;15.70;;;1.87;;
57233;SDS011;43090;52.604;13.318;2024-03-29T03:40:49;3.70;;;1.10;;
57233;SDS011;43090;52.604;13.318;2024-03-29T03:43:15;1.70;;;1.30;;
57233;SDS011;43090;52.604;13.318;2024-03-29T03:45:41;2.03;;;1.13;;
57233;SDS011;43090;52.604;13.318;2024-03-29T03:48:07;2.30;;;1.10;;
57233;SDS011;43090;52.604;13.318;2024-03-29T03:50:35;3.22;;;1.10;;
57233;SDS011;43090;52.604;13.318;2024-03-29T03:53:01;4.10;;;1.37;;
57233;SDS011;43090;52.604;13.318;2024-03-29T03:55:27;4.78;;;1.27;;
57233;SDS011;43090;52.604;13.318;2024-03-29T03:57:52;2.33;;;1.20;;
57233;SDS011;43090;52.604;13.318;2024-03-29T04:00:18;5.05;;;1.10;;
57233;SDS011;43090;52.604;13.318;2024-03-29T04:02:51;5.25;;;1.23;;
57233;SDS011;43090;52.604;13.318;2024-03-29T04:05:17;2.95;;;1.38;;
57233;SDS011;43090;52.604;13.318;2024-03-29T04:07:44;2.70;;;1.48;;
57233;SDS011;43090;52.604;13.318;2024-03-29T04:10:10;4.35;;;1.25;;
57233;SDS011;43090;52.604;13.318;2024-03-29T04:12:36;3.25;;;1.17;;
57233;SDS011;43090;52.604;13.318;2024-03-29T04:15:01;8.27;;;1.43;;
57233;SDS011;43090;52.604;13.318;2024-03-29T04:17:28;5.30;;;1.33;;
57233;SDS011;43090;52.604;13.318;2024-03-29T04:19:56;1.92;;;0.98;;
57233;SDS011;43090;52.604;13.318;2024-03-29T04:22:22;3.50;;;1.30;;
57233;SDS011;43090;52.604;13.318;2024-03-29T04:24:48;3.13;;;1.17;;
57233;SDS011;43090;52.604;13.318;2024-03-29T04:27:14;4.63;;;1.38;;
57233;SDS011;43090;52.604;13.318;2024-03-29T04:29:40;2.90;;;1.20;;
57233;SDS011;43090;52.604;13.318;2024-03-29T04:32:06;5.43;;;1.70;;
57233;SDS011;43090;52.604;13.318;2024-03-29T04:34:32;4.80;;;1.52;;
57233;SDS011;43090;52.604;13.318;2024-03-29T04:39:24;4.28;;;1.67;;
57233;SDS011;43090;52.604;13.318;2024-03-29T04:41:49;5.50;;;1.30;;
57233;SDS011;43090;52.604;13.318;2024-03-29T04:44:22;2.23;;;1.10;;
57233;SDS011;43090;52.604;13.318;2024-03-29T04:46:52;5.05;;;1.30;;
57233;SDS011;43090;52.604;13.318;2024-03-29T04:49:18;5.17;;;1.73;;
57233;SDS011;43090;52.604;13.318;2024-03-29T04:51:48;2.92;;;1.38;;
57233;SDS011;43090;52.604;13.318;2024-03-29T04:54:14;2.22;;;1.40;;
57233;SDS011;43090;52.604;13.318;2024-03-29T04:56:41;4.32;;;1.40;;
57233;SDS011;43090;52.604;13.318;2024-03-29T04:59:07;5.10;;;1.30;;
57233;SDS011;43090;52.604;13.318;2024-03-29T05:01:35;2.40;;;1.10;;
57233;SDS011;43090;52.604;13.318;2024-03-29T05:04:00;8.53;;;1.60;;
57233;SDS011;43090;52.604;13.318;2024-03-29T05:06:26;5.83;;;1.37;;
57233;SDS011;43090;52.604;13.318;2024-03-29T05:08:52;8.77;;;2.73;;
57233;SDS011;43090;52.604;13.318;2024-03-29T05:11:18;2.50;;;1.00;;
57233;SDS011;43090;52.604;13.318;2024-03-29T05:13:45;9.98;;;1.40;;
57233;SDS011;43090;52.604;13.318;2024-03-29T05:16:10;5.07;;;2.40;;
57233;SDS011;43090;52.604;13.318;2024-03-29T05:18:36;2.37;;;1.10;;
57233;SDS011;43090;52.604;13.318;2024-03-29T05:21:01;4.13;;;1.10;;
57233;SDS011;43090;52.604;13.318;2024-03-29T05:23:27;3.57;;;1.13;;
57233;SDS011;43090;52.604;13.318;2024-03-29T05:25:52;4.00;;;1.10;;
57233;SDS011;43090;52.604;13.318;2024-03-29T05:28:20;3.40;;;1.27;;
57233;SDS011;43090;52.604;13.318;2024-03-29T05:30:46;4.43;;;1.15;;
57233;SDS011;43090;52.604;13.318;2024-03-29T05:33:12;2.13;;;1.00;;
57233;SDS011;43090;52.604;13.318;2024-03-29T05:35:37;2.60;;;1.73;;
57233;SDS011;43090;52.604;13.318;2024-03-29T05:38:03;3.63;;;1.40;;
57233;SDS011;43090;52.604;13.318;2024-03-29T05:40:29;10.13;;;1.20;;
57233;SDS011;43090;52.604;13.318;2024-03-29T05:42:54;3.40;;;1.07;;
57233;SDS011;43090;52.604;13.318;2024-03-29T05:47:56;11.18;;;1.15;;
57233;SDS011;43090;52.604;13.318;2024-03-29T05:50:23;2.90;;;1.15;;
57233;SDS011;43090;52.604;13.318;2024-03-29T05:52:50;4.28;;;1.20;;
57233;SDS011;43090;52.604;13.318;2024-03-29T05:55:16;4.57;;;1.00;;
57233;SDS011;43090;52.604;13.318;2024-03-29T05:57:43;6.15;;;1.13;;
57233;SDS011;43090;52.604;13.318;2024-03-29T06:00:10;3.95;;;1.00;;
57233;SDS011;43090;52.604;13.318;2024-03-29T06:02:37;2.08;;;1.10;;
57233;SDS011;43090;52.604;13.318;2024-03-29T06:05:03;1.90;;;0.90;;
57233;SDS011;43090;52.604;13.318;2024-03-29T06:09:58;2.53;;;0.90;;
57233;SDS011;43090;52.604;13.318;2024-03-29T06:12:25;1.48;;;0.80;;
57233;SDS011;43090;52.604;13.318;2024-03-29T06:14:51;7.73;;;1.10;;
57233;SDS011;43090;52.604;13.318;2024-03-29T06:17:35;6.30;;;1.10;;
57233;SDS011;43090;52.604;13.318;2024-03-29T06:20:02;2.03;;;0.65;;
57233;SDS011;43090;52.604;13.318;2024-03-29T06:22:29;4.35;;;1.20;;
57233;SDS011;43090;52.604;13.318;2024-03-29T06:24:55;1.90;;;0.90;;
57233;SDS011;43090;52.604;13.318;2024-03-29T06:27:33;4.55;;;1.55;;
57233;SDS011;43090;52.604;13.318;2024-03-29T06:30:00;4.80;;;1.20;;
57233;SDS011;43090;52.604;13.318;2024-03-29T06:32:26;4.38;;;1.08;;
57233;SDS011;43090;52.604;13.318;2024-03-29T06:34:51;2.73;;;0.83;;
57233;SDS011;43090;52.604;13.318;2024-03-29T06:37:17;4.60;;;0.70;;
57233;SDS011;43090;52.604;13.318;2024-03-29T06:39:42;3.87;;;1.37;;
57233;SDS011;43090;52.604;13.318;2024-03-29T06:42:08;0.80;;;0.60;;
57233;SDS011;43090;52.604;13.318;2024-03-29T06:44:35;5.53;;;1.17;;
57233;SDS011;43090;52.604;13.318;2024-03-29T06:47:01;4.00;;;1.30;;
57233;SDS011;43090;52.604;13.318;2024-03-29T06:49:27;3.42;;;1.08;;
57233;SDS011;43090;52.604;13.318;2024-03-29T06:51:53;4.97;;;1.13;;
57233;SDS011;43090;52.604;13.318;2024-03-29T06:54:24;1.40;;;0.95;;
57233;SDS011;43090;52.604;13.318;2024-03-29T06:56:55;2.40;;;1.13;;
57233;SDS011;43090;52.604;13.318;2024-03-29T06:59:22;2.28;;;0.93;;
57233;SDS011;43090;52.604;13.318;2024-03-29T07:01:48;4.05;;;1.10;;
57233;SDS011;43090;52.604;13.318;2024-03-29T07:04:21;1.77;;;0.60;;
57233;SDS011;43090;52.604;13.318;2024-03-29T07:07:00;1.95;;;0.77;;
57233;SDS011;43090;52.604;13.318;2024-03-29T07:09:26;5.83;;;1.50;;
57233;SDS011;43090;52.604;13.318;2024-03-29T07:11:51;6.20;;;2.10;;
57233;SDS011;43090;52.604;13.318;2024-03-29T07:14:18;6.50;;;2.72;;
57233;SDS011;43090;52.604;13.318;2024-03-29T07:16:44;5.40;;;1.80;;
57233;SDS011;43090;52.604;13.318;2024-03-29T07:19:13;10.27;;;3.00;;
57233;SDS011;43090;52.604;13.318;2024-03-29T07:21:44;13.43;;;4.30;;
57233;SDS011;43090;52.604;13.318;2024-03-29T07:24:13;8.60;;;2.88;;
57233;SDS011;43090;52.604;13.318;2024-03-29T07:26:39;16.57;;;4.90;;
57233;SDS011;43090;52.604;13.318;2024-03-29T07:29:05;12.32;;;4.28;;
57233;SDS011;43090;52.604;13.318;2024-03-29T07:33:59;9.43;;;3.30;;
57233;SDS011;43090;52.604;13.318;2024-03-29T07:36:24;7.13;;;3.23;;
57233;SDS011;43090;52.604;13.318;2024-03-29T07:38:52;8.73;;;2.90;;
57233;SDS011;43090;52.604;13.318;2024-03-29T07:41:17;12.23;;;2.80;;
57233;SDS011;43090;52.604;13.318;2024-03-29T07:43:53;10.47;;;2.77;;
57233;SDS011;43090;52.604;13.318;2024-03-29T07:46:22;7.57;;;2.70;;
57233;SDS011;43090;52.604;13.318;2024-03-29T07:48:48;5.05;;;2.20;;
57233;SDS011;43090;52.604;13.318;2024-03-29T07:51:14;6.50;;;1.83;;
57233;SDS011;43090;52.604;13.318;2024-03-29T07:53:40;7.03;;;2.13;;
57233;SDS011;43090;52.604;13.318;2024-03-29T07:56:06;6.87;;;1.67;;
57233;SDS011;43090;52.604;13.318;2024-03-29T07:58:31;4.47;;;0.90;;
57233;SDS011;43090;52.604;13.318;2024-03-29T08:00:57;1.50;;;0.70;;
57233;SDS011;43090;52.604;13.318;2024-03-29T08:03:22;3.20;;;1.03;;
57233;SDS011;43090;52.604;13.318;2024-03-29T08:05:58;5.70;;;1.10;;
57233;SDS011;43090;52.604;13.318;2024-03-29T08:08:24;6.43;;;1.85;;
57233;SDS011;43090;52.604;13.318;2024-03-29T08:10:58;6.65;;;0.80;;
57233;SDS011;43090;52.604;13.318;2024-03-29T08:13:25;2.30;;;0.70;;
57233;SDS011;43090;52.604;13.318;2024-03-29T08:15:58;3.60;;;0.77;;
57233;SDS011;43090;52.604;13.318;2024-03-29T08:18:26;3.83;;;1.17;;
57233;SDS011;43090;52.604;13.318;2024-03-29T08:23:19;4.43;;;1.30;;
57233;SDS011;43090;52.604;13.318;2024-03-29T08:25:44;3.17;;;0.80;;
57233;SDS011;43090;52.604;13.318;2024-03-29T08:28:13;2.38;;;0.90;;
57233;SDS011;43090;52.604;13.318;2024-03-29T08:30:39;7.03;;;1.20;;
57233;SDS011;43090;52.604;13.318;2024-03-29T08:33:04;7.47;;;1.10;;
57233;SDS011;43090;52.604;13.318;2024-03-29T08:35:30;4.67;;;1.23;;
57233;SDS011;43090;52.604;13.318;2024-03-29T08:37:57;4.15;;;0.75;;
57233;SDS011;43090;52.604;13.318;2024-03-29T08:40:23;1.90;;;0.70;;
57233;SDS011;43090;52.604;13.318;2024-03-29T08:42:49;6.07;;;0.98;;
57233;SDS011;43090;52.604;13.318;2024-03-29T08:45:16;5.80;;;0.85;;
57233;SDS011;43090;52.604;13.318;2024-03-29T08:47:41;2.67;;;1.17;;
57233;SDS011;43090;52.604;13.318;2024-03-29T08:50:07;2.73;;;0.87;;
57233;SDS011;43090;52.604;13.318;2024-03-29T08:54:59;3.08;;;1.00;;
57233;SDS011;43090;52.604;13.318;2024-03-29T08:57:24;3.07;;;0.70;;
57233;SDS011;43090;52.604;13.318;2024-03-29T08:59:50;2.10;;;0.87;;
57233;SDS011;43090;52.604;13.318;2024-03-29T09:02:18;4.97;;;0.90;;
57233;SDS011;43090;52.604;13.318;2024-03-29T09:04:44;2.45;;;0.80;;
57233;SDS011;43090;52.604;13.318;2024-03-29T09:07:09;4.63;;;0.87;;
57233;SDS011;43090;52.604;13.318;2024-03-29T09:09:35;3.93;;;1.00;;
57233;SDS011;43090;52.604;13.318;2024-03-29T09:12:03;4.13;;;0.80;;
57233;SDS011;43090;52.604;13.318;2024-03-29T09:14:28;5.00;;;1.00;;
57233;SDS011;43090;52.604;13.318;2024-03-29T09:16:54;8.77;;;1.10;;
57233;SDS011;43090;52.604;13.318;2024-03-29T09:19:20;5.83;;;0.90;;
57233;SDS011;43090;52.604;13.318;2024-03-29T09:21:45;2.20;;;0.83;;
57233;SDS011;43090;52.604;13.318;2024-03-29T09:24:11;2.10;;;0.68;;
57233;SDS011;43090;52.604;13.318;2024-03-29T09:26:37;1.47;;;0.80;;
57233;SDS011;43090;52.604;13.318;2024-03-29T09:29:03;3.13;;;1.17;;
57233;SDS011;43090;52.604;13.318;2024-03-29T09:31:32;4.63;;;1.10;;
57233;SDS011;43090;52.604;13.318;2024-03-29T09:33:57;3.75;;;1.27;;
57233;SDS011;43090;52.604;13.318;2024-03-29T09:36:23;7.30;;;1.03;;
57233;SDS011;43090;52.604;13.318;2024-03-29T09:38:49;2.83;;;0.90;;
57233;SDS011;43090;52.604;13.318;2024-03-29T09:41:16;2.28;;;0.88;;
57233;SDS011;43090;52.604;13.318;2024-03-29T09:43:45;4.88;;;2.35;;
57233;SDS011;43090;52.604;13.318;2024-03-29T09:46:12;2.78;;;0.90;;
57233;SDS011;43090;52.604;13.318;2024-03-29T09:48:40;1.90;;;0.65;;
57233;SDS011;43090;52.604;13.318;2024-03-29T09:51:06;3.90;;;0.90;;
57233;SDS011;43090;52.604;13.318;2024-03-29T09:53:36;2.47;;;0.80;;
57233;SDS011;43090;52.604;13.318;2024-03-29T09:56:03;1.73;;;0.80;;
57233;SDS011;43090;52.604;13.318;2024-03-29T09:58:30;3.53;;;0.80;;
57233;SDS011;43090;52.604;13.318;2024-03-29T10:00:57;5.65;;;1.52;;
57233;SDS011;43090;52.604;13.318;2024-03-29T10:03:26;5.60;;;0.80;;
57233;SDS011;43090;52.604;13.318;2024-03-29T10:05:58;1.95;;;0.95;;
57233;SDS011;43090;52.604;13.318;2024-03-29T10:08:28;6.18;;;0.82;;
57233;SDS011;43090;52.604;13.318;2024-03-29T10:10:59;2.28;;;0.80;;
57233;SDS011;43090;52.604;13.318;2024-03-29T10:13:25;1.05;;;0.50;;
57233;SDS011;43090;52.604;13.318;2024-03-29T10:15:52;2.83;;;1.00;;
57233;SDS011;43090;52.604;13.318;2024-03-29T10:18:29;1.90;;;0.70;;
57233;SDS011;43090;52.604;13.318;2024-03-29T10:21:07;4.22;;;1.00;;
57233;SDS011;43090;52.604;13.318;2024-03-29T10:23:34;3.70;;;0.80;;
57233;SDS011;43090;52.604;13.318;2024-03-29T10:26:03;2.80;;;0.68;;
57233;SDS011;43090;52.604;13.318;2024-03-29T10:28:30;6.35;;;1.38;;
57233;SDS011;43090;52.604;13.318;2024-03-29T10:31:00;2.30;;;0.95;;
57233;SDS011;43090;52.604;13.318;2024-03-29T10:33:29;1.90;;;0.52;;
57233;SDS011;43090;52.604;13.318;2024-03-29T10:35:55;2.28;;;0.73;;
57233;SDS011;43090;52.604;13.318;2024-03-29T10:38:24;2.35;;;0.95;;
57233;SDS011;43090;52.604;13.318;2024-03-29T10:40:54;3.80;;;0.75;;
57233;SDS011;43090;52.604;13.318;2024-03-29T10:43:20;9.70;;;1.13;;
57233;SDS011;43090;52.604;13.318;2024-03-29T10:45:46;2.22;;;0.88;;
57233;SDS011;43090;52.604;13.318;2024-03-29T10:48:15;1.95;;;0.68;;
57233;SDS011;43090;52.604;13.318;2024-03-29T10:50:41;1.65;;;0.60;;
57233;SDS011;43090;52.604;13.318;2024-03-29T10:53:10;1.27;;;0.70;;
57233;SDS011;43090;52.604;13.318;2024-03-29T10:55:38;3.53;;;0.70;;
57233;SDS011;43090;52.604;13.318;2024-03-29T10:58:07;1.27;;;0.60;;
57233;SDS011;43090;52.604;13.318;2024-03-29T11:00:46;1.83;;;0.63;;
57233;SDS011;43090;52.604;13.318;2024-03-29T11:04:01;4.22;;;0.82;;
57233;SDS011;43090;52.604;13.318;2024-03-29T11:06:15;2.33;;;0.63;;
57233;SDS011;43090;52.604;13.318;2024-03-29T11:08:45;1.90;;;0.73;;
57233;SDS011;43090;52.604;13.318;2024-03-29T11:11:15;1.70;;;0.57;;
57233;SDS011;43090;52.604;13.318;2024-03-29T11:21:04;1.20;;;0.70;;
57233;SDS011;43090;52.604;13.318;2024-03-29T11:23:35;1.77;;;0.70;;
57233;SDS011;43090;52.604;13.318;2024-03-29T11:26:01;1.87;;;0.60;;
57233;SDS011;43090;52.604;13.318;2024-03-29T11:28:29;3.47;;;0.93;;
57233;SDS011;43090;52.604;13.318;2024-03-29T11:31:06;3.70;;;0.90;;
57233;SDS011;43090;52.604;13.318;2024-03-29T11:33:44;2.25;;;0.60;;
57233;SDS011;43090;52.604;13.318;2024-03-29T11:38:45;1.80;;;0.70;;
57233;SDS011;43090;52.604;13.318;2024-03-29T11:41:12;1.90;;;0.70;;
57233;SDS011;43090;52.604;13.318;2024-03-29T11:43:38;1.20;;;0.60;;
57233;SDS011;43090;52.604;13.318;2024-03-29T11:46:20;0.82;;;0.45;;
57233;SDS011;43090;52.604;13.318;2024-03-29T11:49:13;6.90;;;0.73;;
57233;SDS011;43090;52.604;13.318;2024-03-29T11:51:40;2.60;;;0.70;;
57233;SDS011;43090;52.604;13.318;2024-03-29T11:54:07;2.05;;;0.70;;
57233;SDS011;43090;52.604;13.318;2024-03-29T11:56:33;6.87;;;0.50;;
57233;SDS011;43090;52.604;13.318;2024-03-29T11:58:59;2.83;;;0.60;;
57233;SDS011;43090;52.604;13.318;2024-03-29T12:01:27;2.58;;;0.70;;
57233;SDS011;43090;52.604;13.318;2024-03-29T12:06:20;3.08;;;0.50;;
57233;SDS011;43090;52.604;13.318;2024-03-29T12:08:45;3.50;;;1.13;;
57233;SDS011;43090;52.604;13.318;2024-03-29T12:11:11;2.00;;;0.60;;
57233;SDS011;43090;52.604;13.318;2024-03-29T12:13:36;3.27;;;0.80;;
57233;SDS011;43090;52.604;13.318;2024-03-29T12:16:02;1.63;;;0.70;;
57233;SDS011;43090;52.604;13.318;2024-03-29T12:18:31;5.65;;;0.70;;
57233;SDS011;43090;52.604;13.318;2024-03-29T12:21:01;1.15;;;0.38;;
57233;SDS011;43090;52.604;13.318;2024-03-29T12:23:27;1.02;;;0.57;;
57233;SDS011;43090;52.604;13.318;2024-03-29T12:25:56;2.10;;;0.50;;
57233;SDS011;43090;52.604;13.318;2024-03-29T12:28:48;5.60;;;0.80;;
57233;SDS011;43090;52.604;13.318;2024-03-29T12:31:14;2.88;;;0.65;;
57233;SDS011;43090;52.604;13.318;2024-03-29T12:33:40;4.47;;;0.60;;
57233;SDS011;43090;52.604;13.318;2024-03-29T12:36:06;1.33;;;0.70;;
57233;SDS011;43090;52.604;13.318;2024-03-29T12:38:32;2.00;;;0.87;;
57233;SDS011;43090;52.604;13.318;2024-03-29T12:40:57;2.93;;;1.10;;
57233;SDS011;43090;52.604;13.318;2024-03-29T12:43:23;1.67;;;0.80;;
57233;SDS011;43090;52.604;13.318;2024-03-29T12:45:49;1.23;;;0.60;;
57233;SDS011;43090;52.604;13.318;2024-03-29T12:48:16;1.40;;;0.52;;
57233;SDS011;43090;52.604;13.318;2024-03-29T12:50:45;2.58;;;0.82;;
57233;SDS011;43090;52.604;13.318;2024-03-29T12:53:12;2.83;;;0.98;;
57233;SDS011;43090;52.604;13.318;2024-03-29T12:55:39;2.05;;;0.50;;
57233;SDS011;43090;52.604;13.318;2024-03-29T12:58:09;3.03;;;0.70;;
57233;SDS011;43090;52.604;13.318;2024-03-29T13:00:36;1.48;;;0.70;;
57233;SDS011;43090;52.604;13.318;2024-03-29T13:03:03;2.22;;;0.70;;
57233;SDS011;43090;52.604;13.318;2024-03-29T13:05:30;1.23;;;0.73;;
57233;SDS011;43090;52.604;13.318;2024-03-29T13:08:07;4.15;;;0.82;;
57233;SDS011;43090;52.604;13.318;2024-03-29T13:10:39;1.90;;;0.60;;
57233;SDS011;43090;52.604;13.318;2024-03-29T13:13:05;7.00;;;0.83;;
57233;SDS011;43090;52.604;13.318;2024-03-29T13:15:34;2.08;;;0.55;;
57233;SDS011;43090;52.604;13.318;2024-03-29T13:18:02;3.15;;;0.63;;
57233;SDS011;43090;52.604;13.318;2024-03-29T13:20:29;2.60;;;0.60;;
57233;SDS011;43090;52.604;13.318;2024-03-29T13:22:57;2.22;;;0.63;;
57233;SDS011;43090;52.604;13.318;2024-03-29T13:25:23;1.52;;;0.63;;
57233;SDS011;43090;52.604;13.318;2024-03-29T13:27:50;1.95;;;0.70;;
57233;SDS011;43090;52.604;13.318;2024-03-29T13:30:22;1.63;;;0.60;;
57233;SDS011;43090;52.604;13.318;2024-03-29T13:32:50;1.20;;;0.45;;
57233;SDS011;43090;52.604;13.318;2024-03-29T13:35:31;1.63;;;0.95;;
57233;SDS011;43090;52.604;13.318;2024-03-29T13:37:58;1.05;;;0.65;;
57233;SDS011;43090;52.604;13.318;2024-03-29T13:40:24;1.27;;;0.47;;
57233;SDS011;43090;52.604;13.318;2024-03-29T13:42:51;1.37;;;0.70;;
57233;SDS011;43090;52.604;13.318;2024-03-29T13:47:44;1.80;;;0.63;;
57233;SDS011;43090;52.604;13.318;2024-03-29T13:50:11;3.92;;;0.70;;
57233;SDS011;43090;52.604;13.318;2024-03-29T13:52:37;8.20;;;1.30;;
57233;SDS011;43090;52.604;13.318;2024-03-29T13:55:03;4.93;;;1.30;;
57233;SDS011;43090;52.604;13.318;2024-03-29T13:57:29;1.95;;;0.68;;
57233;SDS011;43090;52.604;13.318;2024-03-29T13:59:56;1.85;;;1.40;;
57233;SDS011;43090;52.604;13.318;2024-03-29T14:02:24;1.27;;;0.50;;
57233;SDS011;43090;52.604;13.318;2024-03-29T14:04:51;4.28;;;1.10;;
57233;SDS011;43090;52.604;13.318;2024-03-29T14:07:17;1.33;;;0.63;;
57233;SDS011;43090;52.604;13.318;2024-03-29T14:09:43;2.80;;;0.70;;
57233;SDS011;43090;52.604;13.318;2024-03-29T14:12:10;5.07;;;0.85;;
57233;SDS011;43090;52.604;13.318;2024-03-29T14:14:35;2.20;;;0.70;;
57233;SDS011;43090;52.604;13.318;2024-03-29T14:17:01;4.07;;;1.00;;
57233;SDS011;43090;52.604;13.318;2024-03-29T14:19:35;1.90;;;0.70;;
57233;SDS011;43090;52.604;13.318;2024-03-29T14:22:02;5.35;;;1.67;;
57233;SDS011;43090;52.604;13.318;2024-03-29T14:24:31;4.25;;;1.33;;
57233;SDS011;43090;52.604;13.318;2024-03-29T14:27:01;1.83;;;0.65;;
57233;SDS011;43090;52.604;13.318;2024-03-29T14:29:32;2.95;;;0.95;;
57233;SDS011;43090;52.604;13.318;2024-03-29T14:31:58;2.13;;;0.68;;
57233;SDS011;43090;52.604;13.318;2024-03-29T14:34:24;4.05;;;0.90;;
57233;SDS011;43090;52.604;13.318;2024-03-29T14:36:50;3.33;;;0.60;;
57233;SDS011;43090;52.604;13.318;2024-03-29T14:39:16;1.55;;;0.77;;
57233;SDS011;43090;52.604;13.318;2024-03-29T14:41:44;2.28;;;0.50;;
57233;SDS011;43090;52.604;13.318;2024-03-29T14:44:11;2.47;;;0.88;;
57233;SDS011;43090;52.604;13.318;2024-03-29T14:46:40;3.08;;;1.00;;
57233;SDS011;43090;52.604;13.318;2024-03-29T14:49:06;3.75;;;0.85;;
57233;SDS011;43090;52.604;13.318;2024-03-29T14:51:37;4.97;;;0.90;;
57233;SDS011;43090;52.604;13.318;2024-03-29T14:54:03;3.65;;;1.23;;
57233;SDS011;43090;52.604;13.318;2024-03-29T14:56:29;1.73;;;0.70;;
57233;SDS011;43090;52.604;13.318;2024-03-29T14:59:02;2.15;;;0.70;;
57233;SDS011;43090;52.604;13.318;2024-03-29T15:01:30;2.20;;;0.90;;
57233;SDS011;43090;52.604;13.318;2024-03-29T15:03:56;7.30;;;0.90;;
57233;SDS011;43090;52.604;13.318;2024-03-29T15:06:25;2.38;;;0.63;;
57233;SDS011;43090;52.604;13.318;2024-03-29T15:09:09;3.13;;;0.85;;
57233;SDS011;43090;52.604;13.318;2024-03-29T15:11:35;2.00;;;0.70;;
57233;SDS011;43090;52.604;13.318;2024-03-29T15:14:02;3.78;;;0.80;;
57233;SDS011;43090;52.604;13.318;2024-03-29T15:16:32;1.23;;;0.52;;
57233;SDS011;43090;52.604;13.318;2024-03-29T15:18:57;1.30;;;0.52;;
57233;SDS011;43090;52.604;13.318;2024-03-29T15:21:23;1.00;;;0.70;;
57233;SDS011;43090;52.604;13.318;2024-03-29T15:24:10;1.45;;;0.60;;
57233;SDS011;43090;52.604;13.318;2024-03-29T15:26:35;3.87;;;0.67;;